createdAt,value
2018-12-20T00:00:03.609Z,-5.73
2018-12-20T00:02:34.175Z,-5.73
2018-12-20T00:05:04.777Z,-5.66
2018-12-20T00:07:35.325Z,-5.66
2018-12-20T00:10:06.762Z,-5.60
2018-12-20T00:12:37.580Z,-5.63
2018-12-20T00:15:08.452Z,-5.70
2018-12-20T00:17:43.981Z,-5.69
2018-12-20T00:20:15.545Z,-5.70
2018-12-20T00:22:46.627Z,-5.69
2018-12-20T00:25:17.336Z,-5.64
2018-12-20T00:27:48.086Z,-5.64
2018-12-20T00:30:20.272Z,-5.62
2018-12-20T00:32:50.991Z,-5.59
2018-12-20T00:35:22.484Z,-5.59
2018-12-20T00:37:53.129Z,-5.61
2018-12-20T00:40:25.071Z,-5.55
2018-12-20T00:42:55.882Z,-5.58
2018-12-20T00:45:27.584Z,-5.60
2018-12-20T00:47:58.398Z,-5.68
2018-12-20T00:50:29.276Z,-5.56
2018-12-20T00:53:00.352Z,-5.59
2018-12-20T00:55:31.464Z,-5.62
2018-12-20T00:58:02.119Z,-5.70
2018-12-20T01:00:33.079Z,-5.72
2018-12-20T01:03:04.184Z,-5.73
2018-12-20T01:05:35.026Z,-5.71
2018-12-20T01:08:05.902Z,-5.66
2018-12-20T01:10:36.652Z,-5.66
2018-12-20T01:13:07.348Z,-5.70
2018-12-20T01:15:38.632Z,-5.72
2018-12-20T01:18:09.872Z,-5.82
2018-12-20T01:20:40.649Z,-5.83
2018-12-20T01:23:11.321Z,-5.80
2018-12-20T01:25:42.020Z,-5.74
2018-12-20T01:28:12.746Z,-5.73
2018-12-20T01:30:43.546Z,-5.68
2018-12-20T01:33:14.093Z,-5.67
2018-12-20T01:35:44.745Z,-5.65
2018-12-20T01:38:15.595Z,-5.59
2018-12-20T01:40:46.719Z,-5.65
2018-12-20T01:43:17.425Z,-5.63
2018-12-20T01:45:47.883Z,-5.66
2018-12-20T01:48:19.152Z,-5.70
2018-12-20T01:50:49.851Z,-5.74
2018-12-20T01:53:20.533Z,-5.68
2018-12-20T01:55:51.073Z,-5.63
2018-12-20T01:58:21.940Z,-5.69
2018-12-20T02:00:53.329Z,-5.65
2018-12-20T02:03:23.764Z,-5.64
2018-12-20T02:05:54.357Z,-5.59
2018-12-20T02:08:25.019Z,-5.56
2018-12-20T02:10:55.743Z,-5.55
2018-12-20T02:13:26.214Z,-5.44
2018-12-20T02:15:56.823Z,-5.48
2018-12-20T02:18:27.493Z,-5.55
2018-12-20T02:20:58.340Z,-5.53
2018-12-20T02:23:28.910Z,-5.43
2018-12-20T02:25:59.534Z,-5.44
2018-12-20T02:28:31.569Z,-5.40
2018-12-20T02:31:02.159Z,-5.43
2018-12-20T02:33:33.199Z,-5.43
2018-12-20T02:36:03.857Z,-5.43
2018-12-20T02:38:34.559Z,-5.52
2018-12-20T02:41:05.382Z,-5.67
2018-12-20T02:43:35.863Z,-5.69
2018-12-20T02:46:07.052Z,-5.67
2018-12-20T02:48:39.441Z,-5.59
2018-12-20T02:51:10.316Z,-5.55
2018-12-20T02:53:40.925Z,-5.40
2018-12-20T02:56:11.523Z,-5.44
2018-12-20T02:58:42.065Z,-5.51
2018-12-20T03:01:12.922Z,-5.52
2018-12-20T03:03:43.640Z,-5.48
2018-12-20T03:06:14.277Z,-5.47
2018-12-20T03:08:44.978Z,-5.48
2018-12-20T03:11:15.726Z,-5.48
2018-12-20T03:13:46.413Z,-5.52
2018-12-20T03:16:17.016Z,-5.57
2018-12-20T03:18:47.531Z,-5.58
2018-12-20T03:21:18.479Z,-5.54
2018-12-20T03:23:48.927Z,-5.48
2018-12-20T03:26:19.779Z,-5.40
2018-12-20T03:28:51.186Z,-5.37
2018-12-20T03:31:22.014Z,-5.39
2018-12-20T03:33:52.657Z,-5.34
2018-12-20T03:36:23.461Z,-5.53
2018-12-20T03:38:54.094Z,-5.44
2018-12-20T03:41:24.627Z,-5.41
2018-12-20T03:43:55.251Z,-5.38
2018-12-20T03:46:25.906Z,-5.33
2018-12-20T03:48:56.703Z,-5.38
2018-12-20T03:51:27.580Z,-5.43
2018-12-20T03:53:58.451Z,-5.46
2018-12-20T03:56:29.480Z,-5.38
2018-12-20T03:59:00.154Z,-5.45
2018-12-20T04:01:31.090Z,-5.43
2018-12-20T04:04:01.757Z,-5.47
2018-12-20T04:06:32.315Z,-5.44
2018-12-20T04:09:03.332Z,-5.53
2018-12-20T04:11:34.639Z,-5.45
2018-12-20T04:14:05.711Z,-5.38
2018-12-20T04:16:37.554Z,-5.48
2018-12-20T04:19:08.353Z,-5.52
2018-12-20T04:21:39.311Z,-5.42
2018-12-20T04:24:10.815Z,-5.43
2018-12-20T04:26:41.409Z,-5.42
2018-12-20T04:29:12.006Z,-5.48
2018-12-20T04:31:42.588Z,-5.37
2018-12-20T04:34:13.560Z,-5.42
2018-12-20T04:36:44.205Z,-5.40
2018-12-20T04:39:14.867Z,-5.40
2018-12-20T04:41:45.593Z,-5.42
2018-12-20T04:44:16.025Z,-5.40
2018-12-20T04:46:46.671Z,-5.39
2018-12-20T04:49:17.453Z,-5.33
2018-12-20T04:51:48.135Z,-5.38
2018-12-20T04:54:18.800Z,-5.36
2018-12-20T04:56:49.918Z,-5.36
2018-12-20T04:59:20.842Z,-5.35
2018-12-20T05:01:51.994Z,-5.31
2018-12-20T05:04:23.083Z,-5.31
2018-12-20T05:06:53.654Z,-5.35
2018-12-20T05:09:24.698Z,-5.31
2018-12-20T05:11:55.478Z,-5.28
2018-12-20T05:14:26.437Z,-5.28
2018-12-20T05:16:57.740Z,-5.31
2018-12-20T05:19:28.433Z,-5.30
2018-12-20T05:21:59.378Z,-5.24
2018-12-20T05:24:30.077Z,-5.40
2018-12-20T05:27:00.711Z,-5.44
2018-12-20T05:29:31.622Z,-5.35
2018-12-20T05:32:02.203Z,-5.31
2018-12-20T05:34:32.708Z,-5.26
2018-12-20T05:37:04.261Z,-5.27
2018-12-20T05:39:39.798Z,-5.27
2018-12-20T05:42:10.383Z,-5.29
2018-12-20T05:44:41.362Z,-5.21
2018-12-20T05:47:12.390Z,-5.21
2018-12-20T05:49:43.229Z,-5.21
2018-12-20T05:52:13.780Z,-5.22
2018-12-20T05:54:44.318Z,-5.33
2018-12-20T05:57:15.984Z,-5.41
2018-12-20T05:59:46.766Z,-5.33
2018-12-20T06:02:17.606Z,-5.28
2018-12-20T06:04:48.622Z,-5.33
2018-12-20T06:07:19.423Z,-5.32
2018-12-20T06:09:50.438Z,-5.34
2018-12-20T06:17:23.730Z,-5.26
2018-12-20T06:19:54.701Z,-5.33
2018-12-20T06:22:25.686Z,-5.22
2018-12-20T06:24:56.518Z,-5.30
2018-12-20T06:27:28.422Z,-5.23
2018-12-20T06:30:00.366Z,-5.30
2018-12-20T06:32:31.568Z,-5.35
2018-12-20T06:35:02.368Z,-5.25
2018-12-20T06:37:33.205Z,-5.21
2018-12-20T06:40:05.409Z,-5.12
2018-12-20T06:42:36.257Z,-5.15
2018-12-20T06:45:07.186Z,-5.13
2018-12-20T06:47:37.881Z,-5.11
2018-12-20T06:50:08.662Z,-5.10
2018-12-20T06:52:39.718Z,-5.07
2018-12-20T06:55:10.870Z,-5.01
2018-12-20T06:57:41.693Z,-4.89
2018-12-20T07:00:13.177Z,-4.96
2018-12-20T07:02:43.865Z,-4.91
2018-12-20T07:05:14.907Z,-4.80
2018-12-20T07:07:50.576Z,-4.77
2018-12-20T07:10:24.999Z,-4.72
2018-12-20T07:12:55.775Z,-4.60
2018-12-20T07:15:29.505Z,-4.62
2018-12-20T07:18:00.362Z,-4.71
2018-12-20T07:20:31.274Z,-4.65
2018-12-20T07:23:02.261Z,-4.60
2018-12-20T07:25:33.102Z,-4.62
2018-12-20T07:28:03.829Z,-4.60
2018-12-20T07:30:36.797Z,-4.51
2018-12-20T07:33:07.591Z,-4.41
2018-12-20T07:35:38.475Z,-4.44
2018-12-20T07:38:09.373Z,-4.45
2018-12-20T07:40:40.446Z,-4.39
2018-12-20T07:43:11.265Z,-4.34
2018-12-20T07:45:41.926Z,-4.29
2018-12-20T07:48:12.751Z,-4.12
2018-12-20T07:50:43.548Z,-4.19
2018-12-20T07:53:14.387Z,-4.15
2018-12-20T07:55:45.235Z,-4.13
2018-12-20T07:58:16.111Z,-3.98
2018-12-20T08:00:47.299Z,-3.86
2018-12-20T08:03:18.253Z,-4.04
2018-12-20T08:05:49.017Z,-3.92
2018-12-20T08:08:20.055Z,-3.97
2018-12-20T08:10:51.123Z,-4.00
2018-12-20T08:13:21.994Z,-4.00
2018-12-20T08:15:52.655Z,-3.92
2018-12-20T08:18:23.455Z,-3.97
2018-12-20T08:20:54.363Z,-3.85
2018-12-20T08:23:25.047Z,-3.90
2018-12-20T08:25:56.059Z,-3.74
2018-12-20T08:28:27.005Z,-3.80
2018-12-20T08:30:58.027Z,-3.74
2018-12-20T08:33:28.967Z,-3.56
2018-12-20T08:36:00.261Z,-3.66
2018-12-20T08:41:26.043Z,-3.67
2018-12-20T08:43:58.195Z,-3.81
2018-12-20T08:46:28.910Z,-3.74
2018-12-20T08:48:59.686Z,-3.86
2018-12-20T08:51:30.532Z,-3.77
2018-12-20T08:54:01.369Z,-3.55
2018-12-20T08:56:32.115Z,-3.56
2018-12-20T08:59:03.219Z,-3.49
2018-12-20T09:01:34.129Z,-3.61
2018-12-20T09:04:04.869Z,-3.63
2018-12-20T09:06:35.615Z,-3.49
2018-12-20T09:09:08.396Z,-3.54
2018-12-20T09:11:39.099Z,-3.48
2018-12-20T09:14:09.961Z,-3.41
2018-12-20T09:16:40.755Z,-3.27
2018-12-20T09:19:11.579Z,-3.04
2018-12-20T09:21:42.413Z,-2.84
2018-12-20T09:24:13.251Z,-2.71
2018-12-20T09:26:44.121Z,-2.57
2018-12-20T09:29:14.913Z,-2.60
2018-12-20T09:31:45.811Z,-2.52
2018-12-20T09:34:16.731Z,-2.35
2018-12-20T09:36:47.700Z,-2.21
2018-12-20T09:39:18.503Z,-2.11
2018-12-20T09:41:49.411Z,-2.16
2018-12-20T09:44:20.207Z,-2.24
2018-12-20T09:46:53.224Z,-2.18
2018-12-20T09:49:24.152Z,-2.08
2018-12-20T09:51:54.983Z,-2.23
2018-12-20T09:54:25.743Z,-2.18
2018-12-20T09:56:56.713Z,-2.06
2018-12-20T09:59:27.704Z,-1.89
2018-12-20T10:01:58.751Z,-1.93
2018-12-20T10:04:29.576Z,-1.99
2018-12-20T10:07:00.411Z,-2.11
2018-12-20T10:09:31.641Z,-2.09
2018-12-20T10:12:03.706Z,-2.16
2018-12-20T10:14:34.451Z,-2.06
2018-12-20T10:17:05.297Z,-1.95
2018-12-20T10:19:36.223Z,-2.09
2018-12-20T10:22:06.986Z,-1.99
2018-12-20T10:24:38.011Z,-2.16
2018-12-20T10:27:08.765Z,-2.03
2018-12-20T10:29:39.535Z,-2.09
2018-12-20T10:32:10.345Z,-2.03
2018-12-20T10:34:41.134Z,-1.92
2018-12-20T10:37:11.885Z,-1.91
2018-12-20T10:39:43.222Z,-2.07
2018-12-20T10:42:14.270Z,-1.93
2018-12-20T10:44:46.950Z,-1.75
2018-12-20T10:47:29.197Z,-1.61
2018-12-20T10:50:00.060Z,-1.34
2018-12-20T10:52:31.740Z,-1.40
2018-12-20T10:55:03.540Z,-1.26
2018-12-20T10:57:35.869Z,-1.38
2018-12-20T11:00:08.829Z,-1.39
2018-12-20T11:02:46.440Z,-1.32
2018-12-20T11:05:26.431Z,-1.34
2018-12-20T11:08:01.506Z,-1.21
2018-12-20T11:10:33.130Z,-1.38
2018-12-20T11:13:09.810Z,-1.40
2018-12-20T11:15:41.630Z,-1.25
2018-12-20T11:18:14.295Z,-1.23
2018-12-20T11:20:46.099Z,-1.23
2018-12-20T11:23:17.770Z,-1.40
2018-12-20T11:25:49.570Z,-1.59
2018-12-20T11:28:21.170Z,-1.52
2018-12-20T11:30:52.750Z,-1.49
2018-12-20T11:33:24.310Z,-1.49
2018-12-20T11:35:55.899Z,-1.42
2018-12-20T11:38:27.610Z,-1.35
2018-12-20T11:40:59.333Z,-1.19
2018-12-20T11:43:31.021Z,-1.58
2018-12-20T11:46:02.661Z,-1.48
2018-12-20T11:48:34.684Z,-1.24
2018-12-20T11:51:06.182Z,-1.53
2018-12-20T11:53:37.880Z,-1.42
2018-12-20T11:56:09.870Z,-1.24
2018-12-20T11:58:41.593Z,-1.08
2018-12-20T12:01:13.380Z,-1.18
2018-12-20T12:03:45.060Z,-1.27
2018-12-20T12:06:16.781Z,-1.19
2018-12-20T12:08:48.390Z,-1.12
2018-12-20T12:11:20.080Z,-1.24
2018-12-20T12:13:51.791Z,-1.34
2018-12-20T12:16:23.440Z,-1.26
2018-12-20T12:18:55.210Z,-1.21
2018-12-20T12:21:27.153Z,-1.07
2018-12-20T12:23:58.582Z,-1.09
2018-12-20T12:26:30.640Z,-0.98
2018-12-20T12:29:09.950Z,-1.00
2018-12-20T12:31:41.701Z,-0.88
2018-12-20T12:34:13.829Z,-0.81
2018-12-20T12:36:46.460Z,-0.80
2018-12-20T12:39:18.910Z,-0.90
2018-12-20T12:41:50.950Z,-0.95
2018-12-20T12:44:22.871Z,-1.11
2018-12-20T12:46:54.391Z,-0.98
2018-12-20T12:49:25.770Z,-1.13
2018-12-20T12:51:57.140Z,-1.14
2018-12-20T12:54:28.380Z,-1.12
2018-12-20T12:56:59.705Z,-1.40
2018-12-20T12:59:33.336Z,-1.16
2018-12-20T13:02:05.620Z,-1.04
2018-12-20T13:04:39.119Z,-1.01
2018-12-20T13:07:10.719Z,-0.91
2018-12-20T13:09:42.422Z,-0.89
2018-12-20T13:12:14.199Z,-0.77
2018-12-20T13:14:47.169Z,-1.05
2018-12-20T13:17:18.910Z,-1.23
2018-12-20T13:19:51.549Z,-1.21
2018-12-20T13:22:24.310Z,-1.16
2018-12-20T13:24:56.320Z,-1.14
2018-12-20T13:27:29.670Z,-1.22
2018-12-20T13:30:02.680Z,-1.30
2018-12-20T13:32:35.100Z,-1.46
2018-12-20T13:35:07.470Z,-1.50
2018-12-20T13:37:39.311Z,-1.55
2018-12-20T13:40:11.281Z,-1.48
2018-12-20T13:42:42.790Z,-1.52
2018-12-20T13:45:15.390Z,-1.46
2018-12-20T13:47:47.051Z,-1.41
2018-12-20T13:50:18.582Z,-1.40
2018-12-20T13:52:50.950Z,-1.43
2018-12-20T13:55:24.881Z,-1.47
2018-12-20T13:57:57.171Z,-1.59
2018-12-20T14:00:29.491Z,-1.56
2018-12-20T14:03:01.271Z,-1.65
2018-12-20T14:05:34.741Z,-1.76
2018-12-20T14:08:06.970Z,-1.75
2018-12-20T14:10:41.670Z,-1.78
2018-12-20T14:13:14.719Z,-1.87
2018-12-20T14:15:46.160Z,-1.83
2018-12-20T14:18:17.422Z,-1.75
2018-12-20T14:20:49.312Z,-1.80
2018-12-20T14:23:21.489Z,-1.91
2018-12-20T14:25:54.060Z,-1.98
2018-12-20T14:28:25.442Z,-1.92
2018-12-20T14:30:57.401Z,-1.97
2018-12-20T14:33:29.871Z,-1.91
2018-12-20T14:36:01.343Z,-1.95
2018-12-20T14:38:34.590Z,-2.10
2018-12-20T14:41:07.490Z,-2.07
2018-12-20T14:43:39.670Z,-2.03
2018-12-20T14:46:12.179Z,-1.95
2018-12-20T14:48:44.080Z,-1.94
2018-12-20T14:51:15.579Z,-1.91
2018-12-20T14:53:51.693Z,-2.04
2018-12-20T14:56:25.013Z,-1.98
2018-12-20T14:58:57.363Z,-1.95
2018-12-20T15:01:31.973Z,-2.17
2018-12-20T15:04:04.784Z,-1.93
2018-12-20T15:06:37.754Z,-2.03
2018-12-20T15:09:11.904Z,-2.00
2018-12-20T15:11:44.152Z,-2.04
2018-12-20T15:14:15.744Z,-1.96
2018-12-20T15:16:47.991Z,-1.88
2018-12-20T15:19:21.993Z,-1.88
2018-12-20T15:21:55.993Z,-1.92
2018-12-20T15:24:29.393Z,-1.92
2018-12-20T15:27:00.257Z,-2.02
2018-12-20T15:29:31.453Z,-1.98
2018-12-20T15:32:02.793Z,-2.03
2018-12-20T15:34:34.467Z,-2.07
2018-12-20T15:37:05.703Z,-2.11
2018-12-20T15:39:36.656Z,-2.04
2018-12-20T15:42:07.638Z,-2.08
2018-12-20T15:44:40.329Z,-2.08
2018-12-20T15:47:11.191Z,-2.08
2018-12-20T15:49:42.452Z,-1.98
2018-12-20T15:52:13.626Z,-1.90
2018-12-20T15:54:46.301Z,-1.92
2018-12-20T15:57:17.534Z,-1.93
2018-12-20T15:59:49.153Z,-1.89
2018-12-20T16:02:23.123Z,-1.90
2018-12-20T16:04:54.682Z,-2.00
2018-12-20T16:07:30.733Z,-2.02
2018-12-20T16:10:02.293Z,-2.06
2018-12-20T16:12:33.733Z,-2.07
2018-12-20T16:15:05.305Z,-2.05
2018-12-20T16:17:38.173Z,-2.00
2018-12-20T16:20:09.712Z,-2.01
2018-12-20T16:22:40.667Z,-1.87
2018-12-20T16:25:12.233Z,-1.80
2018-12-20T16:27:43.411Z,-1.68
2018-12-20T16:30:14.502Z,-1.77
2018-12-20T16:32:46.223Z,-1.82
2018-12-20T16:35:17.632Z,-1.74
2018-12-20T16:37:50.473Z,-1.74
2018-12-20T16:40:22.564Z,-1.67
2018-12-20T16:42:54.333Z,-1.68
2018-12-20T16:45:27.314Z,-1.69
2018-12-20T16:47:58.923Z,-1.70
2018-12-20T16:50:31.423Z,-1.71
2018-12-20T16:53:04.314Z,-1.72
2018-12-20T16:55:35.670Z,-1.76
2018-12-20T16:58:06.580Z,-1.72
2018-12-20T17:00:37.772Z,-1.82
2018-12-20T17:03:08.748Z,-1.83
2018-12-20T17:05:41.082Z,-1.77
2018-12-20T17:08:11.958Z,-1.82
2018-12-20T17:10:43.209Z,-1.89
2018-12-20T17:13:14.052Z,-1.85
2018-12-20T17:15:45.140Z,-1.87
2018-12-20T17:18:16.066Z,-1.95
2018-12-20T17:20:48.673Z,-1.96
2018-12-20T17:23:19.828Z,-2.00
2018-12-20T17:25:50.636Z,-2.01
2018-12-20T17:28:21.812Z,-1.95
2018-12-20T17:30:54.848Z,-2.06
2018-12-20T17:33:25.773Z,-2.04
2018-12-20T17:35:57.002Z,-2.13
2018-12-20T17:38:28.183Z,-2.12
2018-12-20T17:41:01.163Z,-2.06
2018-12-20T17:43:33.743Z,-2.22
2018-12-20T17:46:05.199Z,-2.15
2018-12-20T17:48:37.082Z,-2.08
2018-12-20T17:51:08.523Z,-2.09
2018-12-20T17:53:40.064Z,-2.14
2018-12-20T17:56:12.903Z,-2.31
2018-12-20T17:58:44.373Z,-2.23
2018-12-20T18:01:16.733Z,-2.26
2018-12-20T18:03:48.803Z,-2.13
2018-12-20T18:06:20.392Z,-2.20
2018-12-20T18:08:52.144Z,-2.23
2018-12-20T18:11:23.613Z,-2.16
2018-12-20T18:13:56.214Z,-2.15
2018-12-20T18:16:28.073Z,-2.21
2018-12-20T18:18:59.923Z,-2.21
2018-12-20T18:21:31.303Z,-2.21
2018-12-20T18:24:03.283Z,-2.25
2018-12-20T18:26:34.983Z,-2.28
2018-12-20T18:29:06.777Z,-2.29
2018-12-20T18:31:38.334Z,-2.29
2018-12-20T18:34:11.063Z,-2.27
2018-12-20T18:36:42.577Z,-2.27
2018-12-20T18:39:14.162Z,-2.25
2018-12-20T18:41:45.714Z,-2.16
2018-12-20T18:44:17.213Z,-2.17
2018-12-20T18:46:48.833Z,-2.19
2018-12-20T18:49:20.474Z,-2.11
2018-12-20T18:51:52.143Z,-2.15
2018-12-20T18:54:23.562Z,-2.16
2018-12-20T18:56:55.263Z,-2.19
2018-12-20T18:59:27.513Z,-2.16
2018-12-20T19:01:58.973Z,-2.17
2018-12-20T19:04:30.583Z,-2.15
2018-12-20T19:07:14.533Z,-2.10
2018-12-20T19:09:47.161Z,-2.09
2018-12-20T19:12:19.563Z,-2.11
2018-12-20T19:14:51.953Z,-2.09
2018-12-20T19:17:23.619Z,-2.03
2018-12-20T19:19:56.342Z,-2.08
2018-12-20T19:22:32.783Z,-2.06
2018-12-20T19:25:04.333Z,-2.08
2018-12-20T19:27:37.753Z,-2.06
2018-12-20T19:30:11.166Z,-2.02
2018-12-20T19:32:45.120Z,-2.03
2018-12-20T19:35:16.038Z,-1.95
2018-12-20T19:37:48.035Z,-1.95
2018-12-20T19:40:19.707Z,-1.99
2018-12-20T19:42:50.619Z,-2.01
2018-12-20T19:45:23.090Z,-2.00
2018-12-20T19:47:53.976Z,-1.94
2018-12-20T19:50:26.345Z,-1.98
2018-12-20T19:52:57.280Z,-1.91
2018-12-20T19:55:29.037Z,-1.84
2018-12-20T19:58:03.591Z,-1.80
2018-12-20T20:00:34.588Z,-1.85
2018-12-20T20:03:05.675Z,-1.76
2018-12-20T20:05:36.887Z,-1.78
2018-12-20T20:08:07.712Z,-1.78
2018-12-20T20:10:38.657Z,-1.69
2018-12-20T20:13:09.913Z,-1.70
2018-12-20T20:15:42.415Z,-1.66
2018-12-20T20:18:14.083Z,-1.67
2018-12-20T20:20:45.729Z,-1.74
2018-12-20T20:23:17.057Z,-1.74
2018-12-20T20:25:48.201Z,-1.72
2018-12-20T20:28:23.393Z,-1.64
2018-12-20T20:30:54.774Z,-1.58
2018-12-20T20:33:26.074Z,-1.55
2018-12-20T20:35:58.853Z,-1.49
2018-12-20T20:38:30.214Z,-1.43
2018-12-20T20:41:01.837Z,-1.40
2018-12-20T20:43:34.074Z,-1.30
2018-12-20T20:46:05.633Z,-1.26
2018-12-20T20:51:20.814Z,-1.22
2018-12-20T20:53:53.214Z,-1.19
2018-12-20T20:56:24.564Z,-1.17
2018-12-20T20:58:55.445Z,-1.21
2018-12-20T21:01:26.614Z,-1.25
2018-12-20T21:04:03.403Z,-1.24
2018-12-20T21:06:31.454Z,-1.42
2018-12-20T21:09:02.831Z,-1.50
2018-12-20T21:11:34.202Z,-1.57
2018-12-20T21:14:05.747Z,-1.56
2018-12-20T21:16:40.575Z,-1.60
2018-12-20T21:19:12.186Z,-1.71
2018-12-20T21:21:43.684Z,-1.72
2018-12-20T21:24:15.149Z,-1.63
2018-12-20T21:26:46.934Z,-1.75
2018-12-20T21:29:20.115Z,-1.85
2018-12-20T21:31:52.474Z,-1.82
2018-12-20T21:34:23.626Z,-1.88
2018-12-20T21:36:55.514Z,-1.84
2018-12-20T21:39:26.757Z,-1.89
2018-12-20T21:41:59.663Z,-1.89
2018-12-20T21:44:31.194Z,-1.98
2018-12-20T21:47:02.315Z,-1.92
2018-12-20T21:49:33.664Z,-2.00
2018-12-20T21:52:04.539Z,-1.93
2018-12-20T21:54:36.015Z,-1.90
2018-12-20T21:57:07.894Z,-1.93
2018-12-20T21:59:39.224Z,-1.95
2018-12-20T22:02:10.399Z,-1.99
2018-12-20T22:04:42.774Z,-2.04
2018-12-20T22:07:14.274Z,-2.05
2018-12-20T22:09:45.334Z,-2.04
2018-12-20T22:12:17.632Z,-1.98
2018-12-20T22:14:48.821Z,-1.95
2018-12-20T22:17:20.444Z,-2.00
2018-12-20T22:19:58.573Z,-2.06
2018-12-20T22:22:25.872Z,-2.11
2018-12-20T22:24:57.208Z,-2.14
2018-12-20T22:27:28.674Z,-2.05
2018-12-20T22:30:02.104Z,-2.00
2018-12-20T22:32:33.644Z,-1.95
2018-12-20T22:35:05.064Z,-2.09
2018-12-20T22:37:36.274Z,-2.14
2018-12-20T22:40:08.954Z,-2.10
2018-12-20T22:42:40.424Z,-2.12
2018-12-20T22:45:12.664Z,-2.15
2018-12-20T22:47:44.033Z,-2.11
2018-12-20T22:50:15.674Z,-2.11
2018-12-20T22:52:46.994Z,-2.15
2018-12-20T22:55:18.386Z,-2.13
2018-12-20T22:57:51.687Z,-2.16
2018-12-20T23:00:25.024Z,-2.14
2018-12-20T23:02:56.504Z,-2.14
2018-12-20T23:05:29.013Z,-2.16
2018-12-20T23:08:00.094Z,-2.17
2018-12-20T23:10:31.264Z,-2.14
2018-12-20T23:13:02.614Z,-2.13
2018-12-20T23:15:33.777Z,-2.13
2018-12-20T23:18:05.085Z,-2.09
2018-12-20T23:20:36.463Z,-2.09
2018-12-20T23:23:08.094Z,-2.04
2018-12-20T23:25:39.414Z,-2.04
2018-12-20T23:28:10.773Z,-1.99
2018-12-20T23:30:42.173Z,-1.97
2018-12-20T23:33:14.543Z,-1.94
2018-12-20T23:35:45.914Z,-1.92
2018-12-20T23:38:18.133Z,-1.96
2018-12-20T23:40:49.335Z,-2.03
2018-12-20T23:43:20.423Z,-2.09
2018-12-20T23:45:51.655Z,-2.11
2018-12-20T23:48:23.013Z,-2.14
2018-12-20T23:50:54.444Z,-2.11
2018-12-20T23:53:25.796Z,-2.09
2018-12-20T23:55:57.154Z,-2.14
2018-12-20T23:58:28.557Z,-2.09
